Terminal Aerodrome Forecast
Issued by NWS

Home | Current Version | Previous Version | Text Only | Print | Product List | Glossary On
Versions: 1 2 3 4 5 6 7 8 9 10 11 12 13 14 15 16 17
000
FTUS41 KCAR 281725
TAFPQI
TAF
KPQI 281725Z 2818/2918 36007KT P6SM BKN200
     FM282100 34005KT P6SM VCSH SCT030
     FM290000 VRB03KT 5SM -SHSN BKN030
     FM290900 VRB03KT P6SM SKC
      AMD LTD TO CLD VIS AND WIND=

USA.gov is the U.S. government's official web portal to all federal, state and local government web resources and services.